createdAt,value
2023-02-17T00:03:01.285Z,7.28
2023-02-17T00:06:11.924Z,7.29
2023-02-17T00:09:17.415Z,7.35
2023-02-17T00:12:21.197Z,7.36
2023-02-17T00:15:24.950Z,7.36
2023-02-17T00:18:28.754Z,7.38
2023-02-17T00:21:33.916Z,7.39
2023-02-17T00:24:41.378Z,7.46
2023-02-17T00:27:45.262Z,7.46
2023-02-17T00:30:49.040Z,7.49
2023-02-17T00:33:56.648Z,7.45
2023-02-17T00:37:00.417Z,7.48
2023-02-17T00:40:06.246Z,7.56
2023-02-17T00:43:10.011Z,7.54
2023-02-17T00:46:14.255Z,7.57
2023-02-17T00:49:21.499Z,7.53
2023-02-17T00:52:25.276Z,7.60
2023-02-17T00:55:30.463Z,7.58
2023-02-17T00:58:34.330Z,7.60
2023-02-17T01:01:38.728Z,7.59
2023-02-17T01:04:42.603Z,7.65
2023-02-17T01:07:46.582Z,7.61
2023-02-17T01:10:53.363Z,7.60
2023-02-17T01:13:58.404Z,7.61
2023-02-17T01:17:02.358Z,7.62
2023-02-17T01:20:08.711Z,7.63
2023-02-17T01:23:20.171Z,7.62
2023-02-17T01:26:42.974Z,7.66
2023-02-17T01:29:52.598Z,7.66
2023-02-17T01:33:02.505Z,7.68
2023-02-17T01:36:08.668Z,7.70
2023-02-17T01:39:15.872Z,7.65
2023-02-17T01:42:21.882Z,7.69
2023-02-17T01:45:53.764Z,7.69
2023-02-17T01:48:58.572Z,7.76
2023-02-17T01:52:12.319Z,7.77
2023-02-17T01:55:21.179Z,7.75
2023-02-17T01:58:29.259Z,7.75
2023-02-17T02:01:33.990Z,7.75
2023-02-17T02:04:42.519Z,7.73
2023-02-17T02:07:48.595Z,7.78
2023-02-17T02:10:52.394Z,7.79
2023-02-17T02:13:59.191Z,7.75
2023-02-17T02:17:15.823Z,7.80
2023-02-17T02:20:57.383Z,7.77
2023-02-17T02:24:22.497Z,7.85
2023-02-17T02:27:59.368Z,7.84
2023-02-17T02:31:30.760Z,7.82
2023-02-17T02:34:43.882Z,7.85
2023-02-17T02:37:53.242Z,7.87
2023-02-17T02:41:06.157Z,7.90
2023-02-17T02:44:14.239Z,7.87
2023-02-17T02:47:52.373Z,7.89
2023-02-17T02:51:45.008Z,7.90
2023-02-17T02:55:04.390Z,7.87
2023-02-17T02:58:18.478Z,7.88
2023-02-17T03:01:35.088Z,7.88
2023-02-17T03:04:44.363Z,7.95
2023-02-17T03:07:59.651Z,7.93
2023-02-17T03:11:04.812Z,7.92
2023-02-17T03:14:11.216Z,7.92
2023-02-17T03:17:14.999Z,7.95
2023-02-17T03:20:19.419Z,7.93
2023-02-17T03:23:24.658Z,7.95
2023-02-17T03:26:28.475Z,7.94
2023-02-17T03:29:32.754Z,7.96
2023-02-17T03:32:36.860Z,7.96
2023-02-17T03:35:40.778Z,7.96
2023-02-17T03:38:45.940Z,7.96
2023-02-17T03:41:51.761Z,7.97
2023-02-17T03:44:55.515Z,7.95
2023-02-17T03:47:59.328Z,7.96
2023-02-17T03:51:16.751Z,7.97
2023-02-17T03:54:23.095Z,7.96
2023-02-17T03:57:26.941Z,8.00
2023-02-17T04:00:30.893Z,8.00
2023-02-17T04:03:35.678Z,8.02
2023-02-17T04:06:39.591Z,8.01
2023-02-17T04:09:44.915Z,8.03
2023-02-17T04:12:48.707Z,8.07
2023-02-17T04:15:53.695Z,8.08
2023-02-17T04:18:57.610Z,8.14
2023-02-17T04:22:01.385Z,8.07
2023-02-17T04:25:07.369Z,8.15
2023-02-17T04:28:13.307Z,8.16
2023-02-17T04:31:17.112Z,8.12
2023-02-17T04:34:20.892Z,8.14
2023-02-17T04:37:24.793Z,8.20
2023-02-17T04:40:29.881Z,8.20
2023-02-17T04:43:33.925Z,8.18
2023-02-17T04:46:37.615Z,8.22
2023-02-17T04:49:41.478Z,8.21
2023-02-17T04:52:45.262Z,8.20
2023-02-17T04:55:53.762Z,8.18
2023-02-17T04:58:57.474Z,8.22
2023-02-17T05:02:01.300Z,8.20
2023-02-17T05:05:05.411Z,8.19
2023-02-17T05:08:09.417Z,8.20
2023-02-17T05:11:14.530Z,8.19
2023-02-17T05:14:18.794Z,8.19
2023-02-17T05:17:22.772Z,8.19
2023-02-17T05:20:31.287Z,8.20
2023-02-17T05:23:41.146Z,8.30
2023-02-17T05:26:46.506Z,8.27
2023-02-17T05:29:51.579Z,8.28
2023-02-17T05:32:55.458Z,8.33
2023-02-17T05:36:04.846Z,8.32
2023-02-17T05:39:09.186Z,8.40
2023-02-17T05:42:14.474Z,8.39
2023-02-17T05:45:18.484Z,8.43
2023-02-17T05:48:22.591Z,8.41
2023-02-17T05:51:26.317Z,8.39
2023-02-17T05:54:43.710Z,8.43
2023-02-17T05:58:07.904Z,8.43
2023-02-17T06:01:13.271Z,8.41
2023-02-17T06:05:00.291Z,8.43
2023-02-17T06:08:07.966Z,8.44
2023-02-17T06:11:13.153Z,8.44
2023-02-17T06:14:18.746Z,8.51
2023-02-17T06:17:22.579Z,8.54
2023-02-17T06:20:26.461Z,8.51
2023-02-17T06:23:30.349Z,8.53
2023-02-17T06:26:34.193Z,8.57
2023-02-17T06:29:39.448Z,8.50
2023-02-17T06:32:43.358Z,8.52
2023-02-17T06:35:51.178Z,8.52
2023-02-17T06:38:55.052Z,8.55
2023-02-17T06:41:58.747Z,8.52
2023-02-17T06:45:06.198Z,8.52
2023-02-17T06:48:10.068Z,8.54
2023-02-17T06:51:13.925Z,8.58
2023-02-17T06:54:17.887Z,8.59
2023-02-17T06:57:21.749Z,8.60
2023-02-17T07:00:28.672Z,8.55
2023-02-17T07:03:33.613Z,8.54
2023-02-17T07:06:37.431Z,8.47
2023-02-17T07:09:41.997Z,8.46
2023-02-17T07:12:45.806Z,8.45
2023-02-17T07:15:51.074Z,8.48
2023-02-17T07:18:54.850Z,8.47
2023-02-17T07:21:58.590Z,8.45
2023-02-17T07:25:02.384Z,8.45
2023-02-17T07:28:06.452Z,8.45
2023-02-17T07:31:15.050Z,8.46
2023-02-17T07:34:18.876Z,8.46
2023-02-17T07:37:22.698Z,8.43
2023-02-17T07:40:27.336Z,8.40
2023-02-17T07:43:30.991Z,8.44
2023-02-17T07:46:36.735Z,8.45
2023-02-17T07:49:40.616Z,8.44
2023-02-17T07:52:44.431Z,8.40
2023-02-17T07:55:48.166Z,8.43
2023-02-17T07:58:52.353Z,8.45
2023-02-17T08:01:57.807Z,8.45
2023-02-17T08:05:01.710Z,8.44
2023-02-17T08:08:51.315Z,8.47
2023-02-17T08:12:21.437Z,8.44
2023-02-17T08:15:35.224Z,8.44
2023-02-17T08:18:44.950Z,8.47
2023-02-17T08:21:53.671Z,8.48
2023-02-17T08:25:02.057Z,8.46
2023-02-17T08:28:15.238Z,8.47
2023-02-17T08:31:26.934Z,8.49
2023-02-17T08:34:36.974Z,8.50
2023-02-17T08:37:46.853Z,8.49
2023-02-17T08:40:57.330Z,8.49
2023-02-17T08:44:18.237Z,8.53
2023-02-17T08:47:32.263Z,8.55
2023-02-17T08:50:43.343Z,8.57
2023-02-17T08:54:11.423Z,8.56
2023-02-17T08:57:24.133Z,8.57
2023-02-17T09:00:32.445Z,8.57
2023-02-17T09:03:45.449Z,8.59
2023-02-17T09:06:57.927Z,8.65
2023-02-17T09:10:24.749Z,8.66
2023-02-17T09:13:43.418Z,8.68
2023-02-17T09:16:52.056Z,8.70
2023-02-17T09:19:56.724Z,8.69
2023-02-17T09:23:01.945Z,8.74
2023-02-17T09:26:08.273Z,8.76
2023-02-17T09:29:12.877Z,8.81
2023-02-17T09:32:16.793Z,8.87
2023-02-17T09:35:21.387Z,8.87
2023-02-17T09:38:26.604Z,8.90
2023-02-17T09:41:44.631Z,8.90
2023-02-17T09:44:54.807Z,8.96
2023-02-17T09:48:07.192Z,8.99
2023-02-17T09:51:19.496Z,9.03
2023-02-17T09:54:33.381Z,9.08
2023-02-17T09:57:47.686Z,9.09
2023-02-17T10:00:57.268Z,9.16
2023-02-17T10:04:08.899Z,9.16
2023-02-17T10:07:19.315Z,9.20
2023-02-17T10:10:31.114Z,9.24
2023-02-17T10:13:38.965Z,9.29
2023-02-17T10:16:50.382Z,9.35
2023-02-17T10:20:02.453Z,9.42
2023-02-17T10:23:14.627Z,9.47
2023-02-17T10:26:45.919Z,9.50
2023-02-17T10:30:04.927Z,9.57
2023-02-17T10:33:23.923Z,9.65
2023-02-17T10:36:52.394Z,9.72
2023-02-17T10:39:58.702Z,9.73
2023-02-17T10:43:10.494Z,9.75
2023-02-17T10:46:18.626Z,9.76
2023-02-17T10:49:30.420Z,9.81
2023-02-17T10:52:41.521Z,9.82
2023-02-17T10:56:02.381Z,9.85
2023-02-17T10:59:15.758Z,9.84
2023-02-17T11:02:23.677Z,9.79
2023-02-17T11:05:30.957Z,9.90
2023-02-17T11:08:41.161Z,9.86
2023-02-17T11:12:01.660Z,9.89
2023-02-17T11:15:18.634Z,9.91
2023-02-17T11:18:32.711Z,9.91
2023-02-17T11:21:37.477Z,9.93
2023-02-17T11:24:41.452Z,9.89
2023-02-17T11:27:53.432Z,9.89
2023-02-17T11:31:02.815Z,9.86
2023-02-17T11:34:16.644Z,9.93
2023-02-17T11:37:27.112Z,9.90
2023-02-17T11:40:34.120Z,9.87
2023-02-17T11:43:39.555Z,9.83
2023-02-17T11:46:56.902Z,9.86
2023-02-17T11:50:40.762Z,9.93
2023-02-17T11:54:00.878Z,9.92
2023-02-17T11:57:25.982Z,9.95
2023-02-17T12:00:44.704Z,9.86
2023-02-17T12:04:25.161Z,9.68
2023-02-17T12:07:54.648Z,9.56
2023-02-17T12:11:13.212Z,9.56
2023-02-17T12:14:44.635Z,9.54
2023-02-17T12:18:03.196Z,9.51
2023-02-17T12:21:21.134Z,9.49
2023-02-17T12:24:45.664Z,9.47
2023-02-17T12:28:25.557Z,9.46
2023-02-17T12:31:53.866Z,9.40
2023-02-17T12:35:02.988Z,9.40
2023-02-17T12:38:18.165Z,9.37
2023-02-17T12:41:28.782Z,9.38
2023-02-17T12:44:39.068Z,9.46
2023-02-17T12:47:55.404Z,9.47
2023-02-17T12:51:10.573Z,9.50
2023-02-17T12:54:25.784Z,9.49
2023-02-17T12:57:43.223Z,9.47
2023-02-17T13:00:51.966Z,9.48
2023-02-17T13:03:55.942Z,9.47
2023-02-17T13:07:40.854Z,9.47
2023-02-17T13:10:46.131Z,9.50
2023-02-17T13:13:49.873Z,9.53
2023-02-17T13:16:54.485Z,9.53
2023-02-17T13:20:28.351Z,9.59
2023-02-17T13:23:40.044Z,9.59
2023-02-17T13:26:46.548Z,9.71
2023-02-17T13:30:02.349Z,9.70
2023-02-17T13:33:16.028Z,9.70
2023-02-17T13:36:38.574Z,9.71
2023-02-17T13:39:45.003Z,9.75
2023-02-17T13:42:51.944Z,9.83
2023-02-17T13:46:01.900Z,9.86
2023-02-17T13:49:08.063Z,9.96
2023-02-17T13:52:19.708Z,10.01
2023-02-17T13:55:25.074Z,10.00
2023-02-17T13:58:47.142Z,10.01
2023-02-17T14:01:54.743Z,10.03
2023-02-17T14:05:14.194Z,10.03
2023-02-17T14:08:33.882Z,10.17
2023-02-17T14:11:38.069Z,10.22
2023-02-17T14:14:43.426Z,10.28
2023-02-17T14:17:47.825Z,10.37
2023-02-17T14:21:07.562Z,10.39
2023-02-17T14:24:27.043Z,10.40
2023-02-17T14:27:42.349Z,10.33
2023-02-17T14:30:47.709Z,10.38
2023-02-17T14:34:01.741Z,10.31
2023-02-17T14:37:22.372Z,10.36
2023-02-17T14:40:27.175Z,10.32
2023-02-17T14:43:31.732Z,10.39
2023-02-17T14:46:38.525Z,10.38
2023-02-17T14:49:42.326Z,10.45
2023-02-17T14:52:49.915Z,10.60
2023-02-17T14:56:01.164Z,10.60
2023-02-17T14:59:05.284Z,10.71
2023-02-17T15:02:18.691Z,10.71
2023-02-17T15:05:22.497Z,10.80
2023-02-17T15:08:33.822Z,10.86
2023-02-17T15:11:38.179Z,10.91
2023-02-17T15:14:42.119Z,10.89
2023-02-17T15:17:47.374Z,10.83
2023-02-17T15:20:54.082Z,10.81
2023-02-17T15:24:00.028Z,10.69
2023-02-17T15:27:06.276Z,10.59
2023-02-17T15:30:15.625Z,10.60
2023-02-17T15:33:23.912Z,10.54
2023-02-17T15:36:29.551Z,10.41
2023-02-17T15:39:33.369Z,10.23
2023-02-17T15:42:37.151Z,10.09
2023-02-17T15:45:40.923Z,9.94
2023-02-17T15:48:49.961Z,9.76
2023-02-17T15:51:57.642Z,9.63
2023-02-17T15:55:03.012Z,9.47
2023-02-17T15:58:16.673Z,9.40
2023-02-17T16:01:29.376Z,9.33
2023-02-17T16:04:34.579Z,9.22
2023-02-17T16:07:38.635Z,9.04
2023-02-17T16:10:45.563Z,9.03
2023-02-17T16:13:49.771Z,8.85
2023-02-17T16:16:53.785Z,8.79
2023-02-17T16:19:58.929Z,8.84
2023-02-17T16:23:03.727Z,8.76
2023-02-17T16:26:17.179Z,8.51
2023-02-17T16:29:23.751Z,8.43
2023-02-17T16:32:31.853Z,8.40
2023-02-17T16:35:38.811Z,8.28
2023-02-17T16:38:43.374Z,8.20
2023-02-17T16:41:47.980Z,8.05
2023-02-17T16:44:52.611Z,8.16
2023-02-17T16:47:59.306Z,8.00
2023-02-17T16:51:04.642Z,7.95
2023-02-17T16:54:08.720Z,7.81
2023-02-17T16:57:20.124Z,7.83
2023-02-17T17:00:27.876Z,7.75
2023-02-17T17:03:31.588Z,7.66
2023-02-17T17:06:38.253Z,7.66
2023-02-17T17:09:45.254Z,7.68
2023-02-17T17:12:53.060Z,7.68
2023-02-17T17:15:57.207Z,7.59
2023-02-17T17:19:01.816Z,7.60
2023-02-17T17:22:06.896Z,7.59
2023-02-17T17:25:11.502Z,7.39
2023-02-17T17:28:17.021Z,7.46
2023-02-17T17:31:22.042Z,7.31
2023-02-17T17:34:26.578Z,7.29
2023-02-17T17:37:32.449Z,7.25
2023-02-17T17:40:51.383Z,7.28
2023-02-17T17:44:10.588Z,7.18
2023-02-17T17:47:29.338Z,7.22
2023-02-17T17:50:34.119Z,7.04
2023-02-17T17:53:39.464Z,7.22
2023-02-17T17:56:44.291Z,7.10
2023-02-17T17:59:48.221Z,7.05
2023-02-17T18:02:51.999Z,7.00
2023-02-17T18:05:56.070Z,6.96
2023-02-17T18:09:06.073Z,6.91
2023-02-17T18:12:15.737Z,6.90
2023-02-17T18:15:39.782Z,6.88
2023-02-17T18:18:44.043Z,6.88
2023-02-17T18:21:48.131Z,6.87
2023-02-17T18:24:54.957Z,6.85
2023-02-17T18:27:58.930Z,6.78
2023-02-17T18:31:09.204Z,6.74
2023-02-17T18:34:14.597Z,6.72
2023-02-17T18:37:18.466Z,6.79
2023-02-17T18:40:23.916Z,6.77
2023-02-17T18:43:27.657Z,6.63
2023-02-17T18:46:33.366Z,6.57
2023-02-17T18:49:37.568Z,6.60
2023-02-17T18:52:43.622Z,6.60
2023-02-17T18:55:48.848Z,6.55
2023-02-17T18:58:55.652Z,6.46
2023-02-17T19:02:00.906Z,6.45
2023-02-17T19:05:05.192Z,6.41
2023-02-17T19:08:08.910Z,6.38
2023-02-17T19:11:15.290Z,6.33
2023-02-17T19:14:19.052Z,6.34
2023-02-17T19:17:23.172Z,6.29
2023-02-17T19:20:28.716Z,6.33
2023-02-17T19:23:32.626Z,6.32
2023-02-17T19:26:38.631Z,6.25
2023-02-17T19:29:42.746Z,6.33
2023-02-17T19:32:46.670Z,6.37
2023-02-17T19:35:50.883Z,6.32
2023-02-17T19:38:58.482Z,6.19
2023-02-17T19:42:04.684Z,6.17
2023-02-17T19:45:09.082Z,6.11
2023-02-17T19:48:12.806Z,6.08
2023-02-17T19:51:16.997Z,6.02
2023-02-17T19:54:20.798Z,6.00
2023-02-17T19:57:26.008Z,5.94
2023-02-17T20:00:29.870Z,5.93
2023-02-17T20:03:34.780Z,5.96
2023-02-17T20:06:43.903Z,5.95
2023-02-17T20:09:47.603Z,5.88
2023-02-17T20:12:52.850Z,5.83
2023-02-17T20:16:01.299Z,5.75
2023-02-17T20:19:06.792Z,5.83
2023-02-17T20:22:12.426Z,5.71
2023-02-17T20:25:16.186Z,5.80
2023-02-17T20:28:30.263Z,5.70
2023-02-17T20:31:42.629Z,5.72
2023-02-17T20:34:52.819Z,5.77
2023-02-17T20:38:19.511Z,5.78
2023-02-17T20:42:13.846Z,5.64
2023-02-17T20:46:49.088Z,5.62
2023-02-17T20:50:56.071Z,5.60
2023-02-17T20:54:40.954Z,5.44
2023-02-17T20:58:57.743Z,5.42
2023-02-17T21:03:12.304Z,5.43
2023-02-17T21:07:27.627Z,5.31
2023-02-17T21:11:28.977Z,5.22
2023-02-17T21:15:32.603Z,5.23
2023-02-17T21:19:34.463Z,5.29
2023-02-17T21:23:30.606Z,5.32
2023-02-17T21:27:35.346Z,5.28
2023-02-17T21:31:37.141Z,5.20
2023-02-17T21:36:05.270Z,5.17
2023-02-17T21:40:13.085Z,5.13
2023-02-17T21:44:33.294Z,5.09
2023-02-17T21:48:40.509Z,5.07
2023-02-17T21:52:32.194Z,5.06
2023-02-17T21:56:38.614Z,5.06
2023-02-17T22:00:39.203Z,5.07
2023-02-17T22:04:59.924Z,5.07
2023-02-17T22:08:31.296Z,5.05
2023-02-17T22:12:23.771Z,4.99
2023-02-17T22:16:30.946Z,4.94
2023-02-17T22:20:38.263Z,4.97
2023-02-17T22:24:40.956Z,5.01
2023-02-17T22:28:40.683Z,4.95
2023-02-17T22:32:50.516Z,4.91
2023-02-17T22:36:55.486Z,4.86
2023-02-17T22:40:59.813Z,4.72
2023-02-17T22:45:03.785Z,4.67
2023-02-17T22:48:51.269Z,4.61
2023-02-17T22:52:47.960Z,4.61
2023-02-17T22:57:13.640Z,4.59
2023-02-17T23:01:13.150Z,4.49
2023-02-17T23:05:21.792Z,4.41
2023-02-17T23:13:35.776Z,4.51
2023-02-17T23:17:01.352Z,4.51
2023-02-17T23:20:59.174Z,4.50
2023-02-17T23:24:52.545Z,4.46
2023-02-17T23:28:56.252Z,4.57
2023-02-17T23:32:50.139Z,4.54
2023-02-17T23:36:57.603Z,4.60
2023-02-17T23:41:00.545Z,4.55
2023-02-17T23:45:06.009Z,4.52
2023-02-17T23:49:18.117Z,4.61
2023-02-17T23:53:11.997Z,4.59
2023-02-17T23:57:09.563Z,4.64
